createdAt,value
2022-08-07T00:02:39.836Z,72.56
2022-08-07T00:05:31.673Z,71.96
2022-08-07T00:08:22.682Z,72.38
2022-08-07T00:11:11.656Z,72.73
2022-08-07T00:13:51.780Z,72.61
2022-08-07T00:16:38.679Z,72.22
2022-08-07T00:19:26.147Z,72.61
2022-08-07T00:22:24.414Z,73.20
2022-08-07T00:25:23.629Z,73.56
2022-08-07T00:28:13.646Z,74.76
2022-08-07T00:30:55.774Z,74.87
2022-08-07T00:33:35.679Z,76.26
2022-08-07T00:36:22.637Z,77.53
2022-08-07T00:39:04.796Z,77.78
2022-08-07T00:42:01.781Z,77.99
2022-08-07T00:44:51.665Z,78.09
2022-08-07T00:48:09.163Z,78.80
2022-08-07T00:50:50.367Z,79.34
2022-08-07T00:53:50.265Z,80.12
2022-08-07T00:56:33.876Z,80.44
2022-08-07T00:59:35.156Z,80.40
2022-08-07T01:02:28.867Z,80.64
2022-08-07T01:05:18.874Z,80.71
2022-08-07T01:08:06.607Z,81.13
2022-08-07T01:10:54.410Z,81.47
2022-08-07T01:13:46.751Z,81.77
2022-08-07T01:16:49.625Z,81.96
2022-08-07T01:19:32.265Z,82.44
2022-08-07T01:22:22.896Z,82.55
2022-08-07T01:25:53.516Z,83.13
2022-08-07T01:28:24.593Z,83.38
2022-08-07T01:31:05.650Z,84.67
2022-08-07T01:33:55.835Z,85.28
2022-08-07T01:36:58.099Z,86.01
2022-08-07T01:39:41.087Z,86.64
2022-08-07T01:42:57.159Z,86.27
2022-08-07T01:45:40.122Z,86.78
2022-08-07T01:48:31.869Z,86.80
2022-08-07T01:52:01.342Z,87.35
2022-08-07T01:54:36.812Z,87.01
2022-08-07T01:58:06.026Z,86.79
2022-08-07T02:00:49.290Z,86.95
2022-08-07T02:03:48.882Z,86.75
2022-08-07T02:06:34.561Z,87.01
2022-08-07T02:09:52.198Z,87.24
2022-08-07T02:12:29.232Z,87.35
2022-08-07T02:15:27.869Z,87.75
2022-08-07T02:18:11.752Z,87.91
2022-08-07T02:21:00.576Z,88.29
2022-08-07T02:23:55.563Z,88.73
2022-08-07T02:26:43.533Z,89.55
2022-08-07T02:29:31.550Z,91.05
2022-08-07T02:32:13.750Z,92.45
2022-08-07T02:35:04.525Z,92.67
2022-08-07T02:37:48.602Z,93.17
2022-08-07T02:40:37.550Z,93.20
2022-08-07T02:43:26.529Z,93.28
2022-08-07T02:46:15.606Z,93.46
2022-08-07T02:48:58.506Z,93.19
2022-08-07T02:51:52.521Z,92.70
2022-08-07T03:13:12.928Z,96.89
2022-08-07T03:16:02.900Z,95.27
2022-08-07T03:18:46.036Z,94.36
2022-08-07T03:21:35.947Z,93.66
2022-08-07T03:24:26.897Z,92.41
2022-08-07T03:27:10.009Z,91.30
2022-08-07T03:30:03.791Z,90.45
2022-08-07T03:32:59.084Z,90.01
2022-08-07T03:35:50.458Z,89.91
2022-08-07T03:38:33.310Z,89.64
2022-08-07T03:41:42.475Z,88.67
2022-08-07T03:44:34.557Z,88.03
2022-08-07T03:47:24.902Z,87.68
2022-08-07T03:50:10.570Z,87.63
2022-08-07T03:52:57.846Z,87.21
2022-08-07T03:55:55.666Z,86.40
2022-08-07T03:59:08.326Z,86.02
2022-08-07T04:01:55.937Z,84.91
2022-08-07T04:04:37.345Z,84.03
2022-08-07T04:07:23.906Z,82.36
2022-08-07T04:10:15.302Z,80.67
2022-08-07T04:13:02.938Z,79.03
2022-08-07T04:15:43.857Z,78.15
2022-08-07T04:18:59.272Z,76.34
2022-08-07T04:21:33.566Z,75.29
2022-08-07T04:24:33.780Z,74.45
2022-08-07T04:27:25.710Z,73.52
2022-08-07T04:30:21.709Z,72.67
2022-08-07T04:33:35.271Z,70.60
2022-08-07T04:36:15.498Z,70.43
2022-08-07T04:39:10.572Z,68.95
2022-08-07T04:41:57.833Z,67.20
2022-08-07T04:44:54.445Z,66.10
2022-08-07T04:48:01.344Z,64.20
2022-08-07T04:51:09.311Z,61.59
2022-08-07T04:54:08.525Z,60.66
2022-08-07T04:58:16.213Z,59.33
2022-08-07T05:00:39.752Z,57.58
2022-08-07T05:04:08.014Z,56.62
2022-08-07T05:07:19.770Z,55.24
2022-08-07T05:10:11.660Z,55.10
2022-08-07T05:14:51.994Z,53.79
2022-08-07T05:16:22.795Z,53.57
2022-08-07T05:19:16.803Z,52.21
2022-08-07T05:22:04.637Z,50.87
2022-08-07T05:24:55.803Z,49.78
2022-08-07T05:28:02.959Z,48.93
2022-08-07T05:30:47.138Z,48.85
2022-08-07T05:33:28.888Z,48.89
2022-08-07T05:36:22.594Z,50.37
2022-08-07T05:39:08.994Z,51.14
2022-08-07T05:42:13.771Z,50.77
2022-08-07T05:45:14.716Z,49.91
2022-08-07T05:48:11.784Z,50.13
2022-08-07T05:50:54.082Z,50.30
2022-08-07T05:54:14.150Z,49.78
2022-08-07T05:56:42.891Z,48.40
2022-08-07T05:59:29.786Z,47.31
2022-08-07T06:02:34.784Z,46.83
2022-08-07T06:05:25.944Z,45.73
2022-08-07T06:08:31.402Z,44.38
2022-08-07T06:11:12.896Z,42.89
2022-08-07T06:14:12.751Z,42.61
2022-08-07T06:16:56.574Z,39.79
2022-08-07T06:19:47.861Z,38.14
2022-08-07T06:23:02.255Z,36.31
2022-08-07T06:25:58.758Z,38.57
2022-08-07T06:28:45.742Z,38.49
2022-08-07T06:31:46.482Z,36.67
2022-08-07T06:34:31.825Z,38.00
2022-08-07T06:37:20.407Z,38.18
2022-08-07T06:40:15.953Z,37.98
2022-08-07T06:43:21.327Z,36.27
2022-08-07T06:46:15.908Z,38.63
2022-08-07T06:49:18.702Z,42.96
2022-08-07T06:52:07.488Z,45.28
2022-08-07T06:55:33.155Z,46.42
2022-08-07T06:58:00.910Z,46.87
2022-08-07T07:00:54.740Z,46.59
2022-08-07T07:03:47.484Z,45.25
2022-08-07T07:06:39.383Z,47.29
2022-08-07T07:09:40.535Z,47.13
2022-08-07T07:12:33.462Z,47.63
2022-08-07T07:15:43.203Z,49.23
2022-08-07T07:18:33.086Z,50.36
2022-08-07T07:22:05.327Z,51.46
2022-08-07T07:24:38.473Z,50.65
2022-08-07T07:27:35.586Z,51.15
2022-08-07T07:30:41.825Z,51.94
2022-08-07T07:33:30.680Z,49.48
2022-08-07T07:36:13.333Z,50.17
2022-08-07T07:39:00.740Z,49.76
2022-08-07T07:42:01.926Z,50.00
2022-08-07T07:44:53.668Z,47.20
2022-08-07T07:47:52.464Z,45.42
2022-08-07T07:50:39.063Z,45.49
2022-08-07T07:53:27.639Z,45.12
2022-08-07T07:56:17.425Z,43.40
2022-08-07T07:59:18.645Z,41.39
2022-08-07T08:02:34.102Z,41.08
2022-08-07T08:05:16.629Z,40.50
2022-08-07T08:08:04.657Z,42.63
2022-08-07T08:10:52.602Z,41.23
2022-08-07T08:13:53.695Z,39.32
2022-08-07T08:16:40.680Z,39.10
2022-08-07T08:20:16.995Z,37.37
2022-08-07T08:22:59.616Z,38.58
2022-08-07T08:26:07.161Z,38.44
2022-08-07T08:28:57.592Z,38.53
2022-08-07T08:32:16.695Z,37.93
2022-08-07T08:34:48.754Z,38.41
2022-08-07T08:38:01.337Z,40.93
2022-08-07T08:40:47.711Z,40.68
2022-08-07T08:43:42.601Z,40.12
2022-08-07T08:46:49.010Z,40.50
2022-08-07T08:50:04.985Z,38.50
2022-08-07T08:52:56.668Z,38.76
2022-08-07T08:56:05.605Z,40.48
2022-08-07T08:59:23.548Z,40.82
2022-08-07T09:02:42.648Z,42.07
2022-08-07T09:05:53.577Z,42.96
2022-08-07T09:09:09.559Z,42.08
2022-08-07T09:12:59.587Z,41.58
2022-08-07T09:16:22.758Z,40.86
2022-08-07T09:19:51.716Z,40.07
2022-08-07T09:24:30.993Z,40.29
2022-08-07T09:26:00.545Z,39.13
2022-08-07T09:30:06.560Z,39.78
2022-08-07T09:32:21.791Z,38.60
2022-08-07T09:36:03.111Z,39.14
2022-08-07T09:38:56.533Z,38.76
2022-08-07T09:42:07.888Z,37.75
2022-08-07T09:47:24.705Z,39.16
2022-08-07T09:50:01.739Z,39.01
2022-08-07T09:52:44.534Z,38.66
2022-08-07T09:56:12.287Z,38.52
2022-08-07T09:59:46.729Z,36.87
2022-08-07T10:04:03.679Z,36.81
2022-08-07T10:06:55.840Z,36.76
2022-08-07T10:10:21.283Z,35.16
2022-08-07T10:13:54.759Z,35.42
2022-08-07T10:16:45.079Z,35.38
2022-08-07T10:19:42.538Z,34.58
2022-08-07T10:22:37.631Z,34.05
2022-08-07T10:25:42.961Z,33.01
2022-08-07T10:28:49.443Z,33.26
2022-08-07T10:31:45.134Z,33.69
2022-08-07T10:35:12.399Z,33.66
2022-08-07T10:38:48.113Z,32.85
2022-08-07T10:42:09.349Z,33.15
2022-08-07T10:45:12.514Z,33.02
2022-08-07T10:48:34.853Z,31.32
2022-08-07T10:51:57.696Z,33.09
2022-08-07T10:55:01.684Z,32.95
2022-08-07T10:58:31.841Z,33.46
2022-08-07T11:01:51.469Z,32.28
2022-08-07T11:05:05.496Z,32.35
2022-08-07T11:08:16.464Z,33.45
2022-08-07T11:11:25.521Z,31.97
2022-08-07T11:14:57.283Z,31.16
2022-08-07T11:17:56.482Z,30.79
2022-08-07T11:21:25.422Z,31.10
2022-08-07T11:24:29.474Z,32.27
2022-08-07T11:28:01.921Z,31.53
2022-08-07T11:30:51.010Z,32.27
2022-08-07T11:34:03.454Z,31.90
2022-08-07T11:37:13.444Z,32.27
2022-08-07T11:40:52.545Z,34.58
2022-08-07T11:44:10.665Z,36.35
2022-08-07T11:47:38.647Z,35.67
2022-08-07T11:50:59.963Z,35.15
2022-08-07T11:54:04.373Z,35.01
2022-08-07T11:57:00.431Z,35.66
2022-08-07T12:00:10.859Z,35.50
2022-08-07T12:03:44.735Z,34.68
2022-08-07T12:06:55.380Z,35.15
2022-08-07T12:09:57.218Z,35.79
2022-08-07T12:13:37.276Z,35.42
2022-08-07T12:16:31.400Z,33.71
2022-08-07T12:19:35.655Z,34.33
2022-08-07T12:22:47.282Z,33.47
2022-08-07T12:26:23.332Z,33.68
2022-08-07T12:29:37.826Z,34.42
2022-08-07T12:32:45.401Z,33.06
2022-08-07T12:35:37.528Z,33.17
2022-08-07T12:38:30.632Z,33.66
2022-08-07T12:41:49.318Z,34.03
2022-08-07T12:44:39.392Z,33.82
2022-08-07T12:47:49.345Z,33.26
2022-08-07T12:50:55.366Z,32.93
2022-08-07T12:54:03.117Z,32.88
2022-08-07T12:56:59.367Z,32.61
2022-08-07T12:59:55.291Z,32.26
2022-08-07T13:03:00.382Z,32.68
2022-08-07T13:06:16.974Z,33.04
2022-08-07T13:10:19.599Z,32.87
2022-08-07T13:13:05.370Z,33.58
2022-08-07T13:15:45.569Z,34.08
2022-08-07T13:18:50.601Z,34.04
2022-08-07T13:21:58.253Z,33.65
2022-08-07T13:25:23.988Z,34.29
2022-08-07T13:28:24.163Z,33.50
2022-08-07T13:31:19.330Z,33.61
2022-08-07T13:34:33.540Z,33.99
2022-08-07T13:37:24.653Z,34.83
2022-08-07T13:40:42.215Z,33.93
2022-08-07T13:43:29.372Z,33.94
2022-08-07T13:46:28.879Z,33.58
2022-08-07T13:50:35.582Z,33.31
2022-08-07T13:52:36.233Z,34.01
2022-08-07T13:55:28.309Z,34.29
2022-08-07T13:58:42.323Z,33.93
2022-08-07T14:02:04.008Z,33.68
2022-08-07T14:04:57.373Z,33.75
2022-08-07T14:08:00.219Z,33.17
2022-08-07T14:11:01.730Z,33.06
2022-08-07T14:14:02.309Z,33.54
2022-08-07T14:16:53.405Z,33.58
2022-08-07T14:20:41.883Z,33.86
2022-08-07T14:22:59.299Z,34.16
2022-08-07T14:25:47.931Z,34.54
2022-08-07T14:28:55.908Z,34.72
2022-08-07T14:31:42.752Z,34.15
2022-08-07T14:34:33.272Z,34.06
2022-08-07T14:37:36.184Z,34.49
2022-08-07T14:40:26.999Z,34.50
2022-08-07T14:43:59.115Z,34.91
2022-08-07T14:46:30.523Z,34.52
2022-08-07T14:52:27.759Z,35.60
2022-08-07T15:15:24.818Z,36.95
2022-08-07T15:18:14.412Z,36.87
2022-08-07T15:21:44.062Z,37.19
2022-08-07T15:25:15.837Z,37.17
2022-08-07T15:27:40.882Z,37.28
2022-08-07T15:33:52.798Z,37.33
2022-08-07T15:39:57.407Z,36.71
2022-08-07T15:42:48.272Z,36.93
2022-08-07T15:45:56.484Z,36.81
2022-08-07T15:49:11.735Z,36.82
2022-08-07T15:54:49.847Z,37.00
2022-08-07T15:57:39.980Z,37.09
2022-08-07T16:00:35.807Z,37.64
2022-08-07T16:03:47.059Z,37.65
2022-08-07T16:06:29.792Z,38.09
2022-08-07T16:09:22.531Z,38.37
2022-08-07T16:12:28.686Z,38.23
2022-08-07T16:15:54.921Z,38.41
2022-08-07T16:18:50.005Z,38.73
2022-08-07T16:22:05.168Z,38.71
2022-08-07T16:25:07.725Z,39.20
2022-08-07T16:29:18.709Z,38.96
2022-08-07T16:31:57.397Z,39.28
2022-08-07T16:34:53.828Z,38.90
2022-08-07T16:38:09.524Z,39.01
2022-08-07T16:41:04.327Z,38.91
2022-08-07T16:44:05.941Z,38.66
2022-08-07T16:47:45.236Z,38.63
2022-08-07T16:51:13.524Z,38.63
2022-08-07T16:54:32.621Z,38.76
2022-08-07T16:58:02.667Z,38.66
2022-08-07T17:01:08.101Z,38.84
2022-08-07T17:04:24.314Z,38.59
2022-08-07T17:07:28.400Z,38.80
2022-08-07T17:10:33.760Z,39.04
2022-08-07T17:13:38.851Z,38.39
2022-08-07T17:16:40.212Z,38.14
2022-08-07T17:20:02.252Z,37.12
2022-08-07T17:22:56.828Z,37.04
2022-08-07T17:26:23.252Z,37.13
2022-08-07T17:30:12.658Z,37.48
2022-08-07T17:32:35.252Z,37.14
2022-08-07T17:35:51.436Z,37.28
2022-08-07T17:39:15.495Z,37.38
2022-08-07T17:42:06.700Z,37.67
2022-08-07T17:44:58.706Z,37.80
2022-08-07T17:47:54.781Z,37.96
2022-08-07T17:50:54.482Z,38.58
2022-08-07T17:54:01.729Z,38.84
2022-08-07T17:56:49.622Z,38.85
2022-08-07T17:59:50.224Z,38.90
2022-08-07T18:02:57.095Z,38.88
2022-08-07T18:06:01.283Z,39.01
2022-08-07T18:09:06.205Z,39.03
2022-08-07T18:12:16.092Z,38.83
2022-08-07T18:15:08.846Z,38.90
2022-08-07T18:18:47.224Z,38.72
2022-08-07T18:21:54.922Z,38.56
2022-08-07T18:24:51.004Z,38.50
2022-08-07T18:28:07.381Z,38.21
2022-08-07T18:31:33.795Z,38.42
2022-08-07T18:35:02.690Z,38.33
2022-08-07T18:38:56.909Z,38.52
2022-08-07T18:41:07.929Z,38.17
2022-08-07T18:44:16.851Z,38.36
2022-08-07T18:47:44.618Z,38.23
2022-08-07T18:51:00.672Z,38.08
2022-08-07T18:54:31.325Z,38.11
2022-08-07T18:58:02.645Z,37.45
2022-08-07T19:01:09.607Z,37.79
2022-08-07T19:04:35.799Z,38.26
2022-08-07T19:07:52.899Z,38.16
2022-08-07T19:10:52.730Z,37.94
2022-08-07T19:13:52.655Z,38.29
2022-08-07T19:17:00.586Z,38.47
2022-08-07T19:19:53.245Z,38.11
2022-08-07T19:23:00.833Z,37.96
2022-08-07T19:26:24.573Z,38.42
2022-08-07T19:31:04.153Z,38.60
2022-08-07T19:32:18.549Z,38.23
2022-08-07T19:35:09.969Z,38.38
2022-08-07T19:38:05.598Z,38.60
2022-08-07T19:41:04.590Z,38.74
2022-08-07T19:43:54.462Z,39.68
2022-08-07T19:46:55.310Z,40.20
2022-08-07T19:50:41.364Z,40.44
2022-08-07T19:54:44.399Z,40.15
2022-08-07T19:58:03.350Z,40.60
2022-08-07T19:59:39.897Z,41.15
2022-08-07T20:02:59.561Z,41.53
2022-08-07T20:06:01.228Z,41.49
2022-08-07T20:08:50.903Z,41.96
2022-08-07T20:12:22.444Z,42.12
2022-08-07T20:14:54.110Z,42.70
2022-08-07T20:18:01.770Z,42.68
2022-08-07T20:20:45.182Z,42.82
2022-08-07T20:23:43.072Z,42.93
2022-08-07T20:26:45.010Z,43.24
2022-08-07T20:29:49.158Z,43.37
2022-08-07T20:32:43.409Z,43.78
2022-08-07T20:35:33.556Z,44.16
2022-08-07T20:38:18.047Z,44.27
2022-08-07T20:41:14.552Z,44.16
2022-08-07T20:44:12.529Z,44.17
2022-08-07T20:47:05.877Z,44.07
2022-08-07T20:50:01.414Z,44.39
2022-08-07T20:52:51.863Z,44.56
2022-08-07T20:55:40.558Z,44.79
2022-08-07T20:58:28.368Z,44.83
2022-08-07T21:01:20.289Z,45.26
2022-08-07T21:04:22.755Z,45.31
2022-08-07T21:07:14.670Z,45.62
2022-08-07T21:10:00.892Z,46.17
2022-08-07T21:12:51.518Z,46.43
2022-08-07T21:15:58.485Z,46.93
2022-08-07T21:18:46.247Z,46.94
2022-08-07T21:21:49.276Z,47.01
2022-08-07T21:24:47.966Z,47.21
2022-08-07T21:28:02.076Z,47.59
2022-08-07T21:31:15.485Z,48.09
2022-08-07T21:34:18.284Z,48.50
2022-08-07T21:37:23.465Z,48.92
2022-08-07T21:40:18.553Z,48.69
2022-08-07T21:43:22.793Z,49.21
2022-08-07T21:46:35.472Z,49.63
2022-08-07T21:49:21.629Z,49.63
2022-08-07T21:52:33.039Z,50.05
2022-08-07T21:55:28.203Z,50.56
2022-08-07T21:58:46.617Z,50.87
2022-08-07T22:02:10.123Z,50.85
2022-08-07T22:04:53.586Z,51.06
2022-08-07T22:07:58.465Z,51.11
2022-08-07T22:10:46.446Z,50.96
2022-08-07T22:13:51.812Z,51.25
2022-08-07T22:16:46.901Z,51.59
2022-08-07T22:19:45.401Z,51.53
2022-08-07T22:22:44.720Z,51.81
2022-08-07T22:25:36.747Z,52.19
2022-08-07T22:28:39.406Z,52.25
2022-08-07T22:31:58.928Z,52.33
2022-08-07T22:34:53.372Z,52.24
2022-08-07T22:38:02.976Z,52.29
2022-08-07T22:41:10.434Z,53.09
2022-08-07T22:44:00.978Z,53.00
2022-08-07T22:47:23.360Z,54.04
2022-08-07T22:50:33.098Z,54.29
2022-08-07T22:54:07.672Z,54.68
2022-08-07T22:56:56.404Z,55.34
2022-08-07T22:59:50.820Z,55.65
2022-08-07T23:02:47.479Z,55.86
2022-08-07T23:06:10.074Z,56.13
2022-08-07T23:10:00.843Z,55.93
2022-08-07T23:12:34.879Z,56.15
2022-08-07T23:16:48.539Z,56.33
2022-08-07T23:20:02.829Z,56.02
2022-08-07T23:24:05.679Z,56.26
2022-08-07T23:26:29.356Z,56.23
2022-08-07T23:29:43.313Z,56.08
2022-08-07T23:34:24.041Z,56.00
2022-08-07T23:36:17.292Z,55.92
2022-08-07T23:39:17.497Z,55.64
2022-08-07T23:42:26.109Z,55.61
2022-08-07T23:46:03.100Z,55.36
2022-08-07T23:49:03.454Z,55.27
2022-08-07T23:52:58.161Z,55.17
2022-08-07T23:55:52.515Z,55.01
2022-08-07T23:58:31.348Z,54.37
